Time;durP1;ratioP1;P1;durP2;ratioP2;P2;SDS_P1;SDS_P2;PMS_P1;PMS_P2;Temp;Humidity;BMP_temperature;BMP_pressure;BME280_temperature;BME280_humidity;BME280_pressure;Samples;Min_cycle;Max_cycle;Signal;HPM_P1;HPM_P2
2023/01/24 00:00:31;;;;;;;0.30;0.30;;;1.50;99.90;;;;;;5055084;28;20179;-69
2023/01/24 00:02:56;;;;;;;0.73;0.73;;;1.50;99.90;;;;;;5054628;28;20179;-69
2023/01/24 00:05:22;;;;;;;1.77;1.73;;;1.60;99.90;;;;;;5054710;28;20179;-69
2023/01/24 00:07:47;;;;;;;0.40;0.40;;;1.70;99.90;;;;;;5054719;28;20174;-69
2023/01/24 00:10:13;;;;;;;1.73;1.63;;;1.50;99.90;;;;;;5054432;28;20198;-69
2023/01/24 00:12:39;;;;;;;0.30;0.30;;;1.60;99.90;;;;;;5054483;28;20172;-68
2023/01/24 00:15:05;;;;;;;0.60;0.60;;;1.60;99.90;;;;;;5055016;28;20521;-69
2023/01/24 00:17:31;;;;;;;2.00;1.83;;;1.50;99.90;;;;;;5054424;28;20175;-69
2023/01/24 00:19:56;;;;;;;5.00;1.07;;;1.60;99.90;;;;;;5054277;28;20288;-69
2023/01/24 00:22:22;;;;;;;0.83;0.83;;;1.70;99.90;;;;;;5054204;28;20171;-69
2023/01/24 00:24:50;;;;;;;0.40;0.40;;;1.50;99.90;;;;;;5054378;28;20180;-69
2023/01/24 00:27:16;;;;;;;0.30;0.30;;;1.50;99.90;;;;;;5054288;28;20946;-69
2023/01/24 00:29:42;;;;;;;0.63;0.63;;;1.30;99.90;;;;;;5054150;28;20657;-69
2023/01/24 00:32:08;;;;;;;2.93;1.23;;;1.40;99.90;;;;;;5053989;28;20188;-69
2023/01/24 00:34:34;;;;;;;1.90;0.50;;;1.50;99.90;;;;;;5053650;28;20168;-69
2023/01/24 00:37:00;;;;;;;1.03;1.03;;;1.60;99.90;;;;;;5054151;28;20237;-69
2023/01/24 00:39:25;;;;;;;0.47;0.47;;;1.50;99.90;;;;;;5053980;28;20191;-69
2023/01/24 00:41:51;;;;;;;0.30;0.30;;;1.60;99.90;;;;;;5053851;28;20612;-69
2023/01/24 00:44:16;;;;;;;0.30;0.30;;;1.70;99.90;;;;;;5053947;28;20166;-69
2023/01/24 00:46:42;;;;;;;0.30;0.30;;;1.90;99.90;;;;;;5053969;28;20200;-69
2023/01/24 00:49:08;;;;;;;0.30;0.30;;;1.90;99.90;;;;;;5054023;28;20183;-69
2023/01/24 00:51:34;;;;;;;0.40;0.40;;;1.80;99.90;;;;;;5053881;28;20171;-69
2023/01/24 00:53:59;;;;;;;0.80;0.77;;;1.70;99.90;;;;;;5053596;28;20181;-69
2023/01/24 00:56:25;;;;;;;0.77;0.77;;;1.70;99.90;;;;;;5052592;28;20485;-69
2023/01/24 00:58:51;;;;;;;0.40;0.40;;;1.40;99.90;;;;;;5053577;28;20204;-69
2023/01/24 01:01:16;;;;;;;1.47;1.37;;;1.30;99.90;;;;;;5053589;28;20179;-69
2023/01/24 01:03:42;;;;;;;0.40;0.40;;;1.40;99.90;;;;;;5052046;28;20179;-69
2023/01/24 01:06:14;;;;;;;5.40;1.63;;;1.60;99.90;;;;;;5053391;28;20211;-69
2023/01/24 01:08:42;;;;;;;0.40;0.40;;;1.70;99.90;;;;;;5053631;28;20538;-69
2023/01/24 01:11:09;;;;;;;0.30;0.30;;;1.50;99.90;;;;;;5053255;28;20309;-69
2023/01/24 01:13:35;;;;;;;1.05;1.05;;;1.60;99.90;;;;;;5053245;28;20171;-69
2023/01/24 01:16:06;;;;;;;0.30;0.30;;;1.70;99.90;;;;;;5053413;28;20541;-69
2023/01/24 01:18:33;;;;;;;0.50;0.50;;;1.70;99.90;;;;;;5053261;28;20996;-69
2023/01/24 01:20:59;;;;;;;0.60;0.60;;;1.50;99.90;;;;;;5053501;28;20177;-69
2023/01/24 01:23:25;;;;;;;0.40;0.40;;;1.40;99.90;;;;;;5052990;28;20510;-69
2023/01/24 01:25:50;;;;;;;0.30;0.30;;;1.50;99.90;;;;;;5053206;28;20206;-69
2023/01/24 01:28:16;;;;;;;0.40;0.40;;;1.50;99.90;;;;;;5053192;28;20175;-69
2023/01/24 01:30:42;;;;;;;0.70;0.70;;;1.50;99.90;;;;;;5053255;28;20306;-69
2023/01/24 01:33:07;;;;;;;2.03;1.93;;;1.40;99.90;;;;;;5053017;28;20642;-69
2023/01/24 01:35:33;;;;;;;0.40;0.40;;;1.50;99.90;;;;;;5053351;28;20175;-69
2023/01/24 01:37:59;;;;;;;0.60;0.57;;;1.50;99.90;;;;;;5053282;28;20179;-69
2023/01/24 01:40:24;;;;;;;0.30;0.30;;;1.40;99.90;;;;;;5053165;28;20699;-68
2023/01/24 01:42:53;;;;;;;1.53;1.30;;;1.30;99.90;;;;;;5053140;28;20171;-69
2023/01/24 01:45:39;;;;;;;0.30;0.30;;;1.40;99.90;;;;;;5053272;28;20405;-69
2023/01/24 01:48:17;;;;;;;0.40;0.40;;;1.50;99.90;;;;;;5056925;28;20549;-69
2023/01/24 01:51:12;;;;;;;1.00;0.95;;;1.40;99.90;;;;;;5057204;28;20229;-69
2023/01/24 01:54:04;;;;;;;2.35;1.63;;;1.20;99.90;;;;;;5047017;28;20190;-69
2023/01/24 01:56:53;;;;;;;0.30;0.30;;;1.10;99.90;;;;;;5054686;28;20225;-69
2023/01/24 01:59:33;;;;;;;0.30;0.30;;;1.10;99.90;;;;;;5052890;28;20269;-69
2023/01/24 02:02:00;;;;;;;1.40;0.60;;;1.30;99.90;;;;;;5057077;28;20234;-69
2023/01/24 02:04:36;;;;;;;0.30;0.30;;;1.30;99.90;;;;;;5057122;28;20164;-69
2023/01/24 02:07:12;;;;;;;0.30;0.30;;;1.40;99.90;;;;;;5057106;28;20216;-69
2023/01/24 02:09:41;;;;;;;0.73;0.73;;;1.40;99.90;;;;;;5056932;28;20607;-69
2023/01/24 02:12:15;;;;;;;1.00;1.00;;;1.40;99.90;;;;;;5056883;28;20180;-69
2023/01/24 02:17:30;;;;;;;0.30;0.30;;;1.50;99.90;;;;;;5056985;28;20219;-69
2023/01/24 02:19:58;;;;;;;0.30;0.30;;;1.40;99.90;;;;;;5055296;28;20256;-69
2023/01/24 02:22:46;;;;;;;1.80;1.70;;;1.40;99.90;;;;;;5055240;28;20645;-69
2023/01/24 02:25:37;;;;;;;1.70;1.63;;;1.40;99.90;;;;;;5056851;28;20176;-68
2023/01/24 02:28:05;;;;;;;1.08;1.05;;;1.30;99.90;;;;;;5056685;28;20187;-69
2023/01/24 02:30:31;;;;;;;0.30;0.30;;;1.30;99.90;;;;;;5056438;28;20193;-69
2023/01/24 02:32:57;;;;;;;0.40;0.40;;;1.40;99.90;;;;;;5056356;28;20256;-69
2023/01/24 02:35:30;;;;;;;0.40;0.40;;;1.50;99.90;;;;;;5056450;28;20191;-69
2023/01/24 02:38:00;;;;;;;0.63;0.63;;;1.50;99.90;;;;;;5056580;28;20175;-69
2023/01/24 02:40:28;;;;;;;1.02;1.02;;;1.50;99.90;;;;;;5056216;28;20226;-68
2023/01/24 02:42:57;;;;;;;0.82;0.60;;;1.50;99.90;;;;;;5056208;28;20176;-69
2023/01/24 02:45:29;;;;;;;0.30;0.30;;;1.60;99.90;;;;;;5056413;28;20180;-69
2023/01/24 02:47:56;;;;;;;0.35;0.35;;;1.50;99.90;;;;;;5056334;28;20188;-69
2023/01/24 02:50:27;;;;;;;2.30;2.20;;;1.50;99.90;;;;;;5056046;28;20215;-69
2023/01/24 02:58:05;;;;;;;3.83;1.42;;;1.40;99.90;;;;;;5056120;28;20606;-69
2023/01/24 02:58:23;;;;;;;0.47;0.47;;;1.60;99.90;;;;;;5055414;28;20219;-69
2023/01/24 03:00:49;;;;;;;0.30;0.30;;;1.80;99.90;;;;;;5056049;28;20163;-68
2023/01/24 03:03:15;;;;;;;0.37;0.37;;;1.60;99.90;;;;;;5055780;28;20533;-69
2023/01/24 03:05:56;;;;;;;0.68;0.68;;;1.50;99.90;;;;;;5055929;28;20637;-68
2023/01/24 03:08:26;;;;;;;1.15;1.15;;;1.40;99.90;;;;;;5055976;28;20217;-69
2023/01/24 03:10:52;;;;;;;0.65;0.65;;;1.40;99.90;;;;;;5056041;28;20159;-69
2023/01/24 03:35:13;;;;;;;1.90;1.80;;;1.70;99.90;;;;;;5054376;28;20656;-69
2023/01/24 03:40:22;;;;;;;0.30;0.30;;;1.30;99.90;;;;;;5055212;28;20199;-69
2023/01/24 03:42:48;;;;;;;0.30;0.30;;;1.40;99.90;;;;;;5055054;28;20180;-69
2023/01/24 03:45:17;;;;;;;2.43;2.23;;;1.40;99.90;;;;;;5055271;28;20171;-68
2023/01/24 03:48:12;;;;;;;0.40;0.40;;;1.50;99.90;;;;;;5055270;28;20602;-69
2023/01/24 03:53:27;;;;;;;0.40;0.40;;;1.60;99.90;;;;;;5055079;28;20183;-68
2023/01/24 03:55:54;;;;;;;0.35;0.35;;;1.50;99.90;;;;;;5054960;28;20175;-69
2023/01/24 03:58:21;;;;;;;1.48;1.42;;;1.60;99.90;;;;;;5054854;28;20625;-69
2023/01/24 04:00:47;;;;;;;0.50;0.50;;;1.80;99.90;;;;;;5055259;28;20259;-68
2023/01/24 04:03:12;;;;;;;2.53;0.97;;;1.50;99.90;;;;;;5054959;28;20249;-69
2023/01/24 04:05:38;;;;;;;2.53;1.33;;;1.40;99.90;;;;;;5054798;28;20417;-69
2023/01/24 04:08:04;;;;;;;0.93;0.93;;;1.10;99.90;;;;;;5054863;28;20172;-69
2023/01/24 04:10:30;;;;;;;0.30;0.30;;;1.10;99.90;;;;;;5053764;28;20187;-69
2023/01/24 04:12:56;;;;;;;0.40;0.40;;;1.20;99.90;;;;;;5054479;28;20163;-69
2023/01/24 04:15:27;;;;;;;0.50;0.50;;;1.30;99.90;;;;;;5054648;28;20183;-69
2023/01/24 04:17:57;;;;;;;1.48;0.95;;;1.30;99.90;;;;;;5054662;28;20230;-69
2023/01/24 04:20:24;;;;;;;2.67;1.40;;;1.40;99.90;;;;;;5054238;28;20203;-68
2023/01/24 04:22:49;;;;;;;0.30;0.30;;;1.40;99.90;;;;;;5054188;28;20185;-69
2023/01/24 04:25:15;;;;;;;0.50;0.50;;;1.60;99.90;;;;;;5054401;28;20195;-68
2023/01/24 04:27:40;;;;;;;1.17;0.87;;;1.20;99.90;;;;;;5054306;28;20210;-69
2023/01/24 04:30:10;;;;;;;0.30;0.30;;;1.10;99.90;;;;;;5054221;28;20199;-69
2023/01/24 04:32:36;;;;;;;1.00;1.00;;;1.20;99.90;;;;;;5054062;28;20168;-69
2023/01/24 04:35:03;;;;;;;0.35;0.35;;;1.40;99.90;;;;;;5054267;28;20174;-69
2023/01/24 04:37:29;;;;;;;0.30;0.30;;;1.60;99.90;;;;;;5054111;28;20169;-68
2023/01/24 04:39:55;;;;;;;1.50;0.93;;;1.50;99.90;;;;;;5053880;28;20257;-69
2023/01/24 04:42:21;;;;;;;0.47;0.47;;;1.50;99.90;;;;;;5053856;28;20645;-69
2023/01/24 04:44:47;;;;;;;0.68;0.63;;;1.70;99.90;;;;;;5054234;28;20218;-69
2023/01/24 04:47:12;;;;;;;14.40;2.70;;;1.50;99.90;;;;;;5053845;28;20237;-68
2023/01/24 04:49:38;;;;;;;0.50;0.50;;;1.30;99.90;;;;;;5053880;28;20606;-69
2023/01/24 04:52:04;;;;;;;0.40;0.40;;;1.30;99.90;;;;;;5053710;28;20168;-69
2023/01/24 04:54:30;;;;;;;0.82;0.82;;;1.30;99.90;;;;;;5053843;28;20525;-69
2023/01/24 04:56:55;;;;;;;10.03;3.10;;;1.30;99.90;;;;;;5054046;28;20172;-69
2023/01/24 04:59:21;;;;;;;0.30;0.30;;;1.30;99.90;;;;;;5053916;28;20193;-69
2023/01/24 05:01:46;;;;;;;0.50;0.50;;;1.30;99.90;;;;;;5053563;28;20205;-69
2023/01/24 05:04:12;;;;;;;0.30;0.30;;;1.20;99.90;;;;;;5053834;28;20174;-69
2023/01/24 05:06:38;;;;;;;1.27;0.87;;;1.00;99.90;;;;;;5053785;28;20227;-69
2023/01/24 05:09:04;;;;;;;0.40;0.40;;;1.00;99.90;;;;;;5053577;28;20187;-69
2023/01/24 05:11:29;;;;;;;1.00;1.00;;;1.10;99.90;;;;;;5053944;28;20207;-69
2023/01/24 05:13:55;;;;;;;0.40;0.40;;;1.20;99.90;;;;;;5053504;28;20498;-69
2023/01/24 05:16:21;;;;;;;1.37;1.27;;;1.30;99.90;;;;;;5053506;28;20259;-69
2023/01/24 05:18:47;;;;;;;0.93;0.93;;;1.40;99.90;;;;;;5053416;28;20203;-69
2023/01/24 05:21:17;;;;;;;0.50;0.50;;;1.50;99.90;;;;;;5052089;28;20263;-69
2023/01/24 05:23:47;;;;;;;0.30;0.30;;;1.50;99.90;;;;;;5053382;28;20180;-69
2023/01/24 05:26:13;;;;;;;0.93;0.80;;;1.50;99.90;;;;;;5053572;28;20195;-69
2023/01/24 05:28:38;;;;;;;0.70;0.70;;;1.40;99.90;;;;;;5053495;28;20218;-69
2023/01/24 05:31:08;;;;;;;0.77;0.77;;;1.50;99.90;;;;;;5053326;28;20179;-69
2023/01/24 05:33:33;;;;;;;0.30;0.30;;;1.70;99.90;;;;;;5053093;28;20163;-69
2023/01/24 05:36:00;;;;;;;2.33;0.60;;;1.60;99.90;;;;;;5053336;28;20182;-69
2023/01/24 05:38:26;;;;;;;0.30;0.30;;;1.70;99.90;;;;;;5053419;28;20475;-69
2023/01/24 05:40:51;;;;;;;0.70;0.70;;;1.70;99.90;;;;;;5053279;28;20207;-69
2023/01/24 05:43:17;;;;;;;0.70;0.70;;;1.80;99.90;;;;;;5053093;28;20179;-69
2023/01/24 05:45:43;;;;;;;0.57;0.57;;;1.80;99.90;;;;;;5053374;28;20176;-69
2023/01/24 05:48:09;;;;;;;0.60;0.60;;;1.70;99.90;;;;;;5053291;28;20660;-69
2023/01/24 05:50:35;;;;;;;2.35;0.85;;;1.50;99.90;;;;;;5053183;28;20171;-68
2023/01/24 05:53:04;;;;;;;0.30;0.30;;;1.20;99.90;;;;;;5053034;28;20181;-69
2023/01/24 05:55:30;;;;;;;0.52;0.52;;;1.30;99.90;;;;;;5053211;28;20644;-69
2023/01/24 05:57:59;;;;;;;0.67;0.67;;;1.30;99.90;;;;;;5053190;28;20238;-69
2023/01/24 06:00:24;;;;;;;0.40;0.40;;;1.30;99.90;;;;;;5053008;28;20211;-69
2023/01/24 06:02:51;;;;;;;0.40;0.40;;;1.40;99.90;;;;;;5053189;28;20210;-69
2023/01/24 06:05:16;;;;;;;0.30;0.30;;;1.50;99.90;;;;;;5051821;28;20183;-69
2023/01/24 06:07:42;;;;;;;0.50;0.50;;;1.60;99.90;;;;;;5053069;28;20209;-68
2023/01/24 06:10:08;;;;;;;0.40;0.40;;;1.40;99.90;;;;;;5052909;28;20207;-69
2023/01/24 06:12:34;;;;;;;0.30;0.30;;;1.40;99.90;;;;;;5052942;28;20690;-69
2023/01/24 06:14:59;;;;;;;0.40;0.40;;;1.40;99.90;;;;;;5053044;28;20264;-69
2023/01/24 06:17:25;;;;;;;0.40;0.40;;;1.60;99.90;;;;;;5052946;28;20184;-69
2023/01/24 06:19:50;;;;;;;0.40;0.40;;;1.70;99.90;;;;;;5052878;28;20748;-69
2023/01/24 06:22:23;;;;;;;0.50;0.50;;;1.80;99.90;;;;;;5052863;28;20182;-68
2023/01/24 06:24:49;;;;;;;1.13;1.13;;;1.60;99.90;;;;;;5053103;28;20407;-68
2023/01/24 06:27:15;;;;;;;0.40;0.40;;;1.70;99.90;;;;;;5052756;28;20200;-69
2023/01/24 06:29:41;;;;;;;0.40;0.40;;;1.70;99.90;;;;;;5052597;28;20467;-69
2023/01/24 06:32:20;;;;;;;0.40;0.40;;;1.50;99.90;;;;;;5053071;28;20402;-68
2023/01/24 06:34:51;;;;;;;0.40;0.40;;;1.40;99.90;;;;;;5056481;28;20165;-69
2023/01/24 06:37:31;;;;;;;0.65;0.63;;;1.40;99.90;;;;;;5056646;28;20538;-68
2023/01/24 06:39:57;;;;;;;1.13;1.13;;;1.30;99.90;;;;;;5056591;28;20193;-68
2023/01/24 06:42:23;;;;;;;0.30;0.30;;;1.40;99.90;;;;;;5056133;28;20203;-69
2023/01/24 06:44:49;;;;;;;0.35;0.35;;;1.40;99.90;;;;;;5056181;28;20242;-68
2023/01/24 06:47:15;;;;;;;0.30;0.30;;;1.50;99.90;;;;;;5056145;28;20217;-69
2023/01/24 06:49:41;;;;;;;0.35;0.35;;;1.50;99.90;;;;;;5056133;28;20280;-69
2023/01/24 06:52:07;;;;;;;0.40;0.40;;;1.40;99.90;;;;;;5056049;28;20319;-69
2023/01/24 06:54:34;;;;;;;1.13;1.13;;;1.50;99.90;;;;;;5056317;28;20172;-69
2023/01/24 06:57:00;;;;;;;0.40;0.40;;;1.60;99.90;;;;;;5056512;28;20172;-68
2023/01/24 06:59:26;;;;;;;0.40;0.40;;;1.60;99.90;;;;;;5056083;28;20191;-69
2023/01/24 07:01:52;;;;;;;0.50;0.50;;;1.40;99.90;;;;;;5055861;28;20489;-69
2023/01/24 07:04:18;;;;;;;0.30;0.30;;;1.40;99.90;;;;;;5056080;28;20200;-69
2023/01/24 07:06:44;;;;;;;2.30;0.80;;;1.50;99.90;;;;;;5055952;28;20203;-69
2023/01/24 07:09:10;;;;;;;0.90;0.90;;;1.70;99.90;;;;;;5055874;28;20198;-68
2023/01/24 07:11:36;;;;;;;0.80;0.80;;;1.50;99.90;;;;;;5054557;28;20551;-69
2023/01/24 07:14:02;;;;;;;1.43;1.43;;;1.40;99.90;;;;;;5055664;28;20172;-71
2023/01/24 07:16:28;;;;;;;3.33;1.55;;;1.40;99.90;;;;;;5055752;28;20483;-71
2023/01/24 07:18:54;;;;;;;0.50;0.50;;;1.50;99.90;;;;;;5055648;28;20681;-71
2023/01/24 07:21:20;;;;;;;0.30;0.30;;;1.70;99.90;;;;;;5055688;28;20204;-72
2023/01/24 07:23:47;;;;;;;0.30;0.30;;;1.70;99.90;;;;;;5055229;28;20410;-72
2023/01/24 07:26:13;;;;;;;0.60;0.60;;;1.70;99.90;;;;;;5055360;28;20512;-72
2023/01/24 07:28:40;;;;;;;0.30;0.30;;;1.70;99.90;;;;;;5055401;28;20233;-72
2023/01/24 07:31:06;;;;;;;0.50;0.50;;;1.70;99.90;;;;;;5055035;28;20174;-71
2023/01/24 07:33:32;;;;;;;1.77;1.75;;;1.60;99.90;;;;;;5054374;28;20174;-70
2023/01/24 07:35:58;;;;;;;0.40;0.40;;;1.60;99.90;;;;;;5055909;28;20184;-70
2023/01/24 07:38:24;;;;;;;0.40;0.40;;;1.80;99.90;;;;;;5055925;28;20180;-69
2023/01/24 07:40:50;;;;;;;0.40;0.40;;;1.80;99.90;;;;;;5055826;28;20178;-70
2023/01/24 07:43:16;;;;;;;0.30;0.30;;;1.60;99.90;;;;;;5054912;28;20439;-70
2023/01/24 07:45:45;;;;;;;1.03;0.60;;;1.40;99.90;;;;;;5054571;28;20173;-70
2023/01/24 07:48:10;;;;;;;1.05;0.65;;;1.20;99.90;;;;;;5055415;28;20310;-70
2023/01/24 07:50:36;;;;;;;0.50;0.50;;;1.30;99.90;;;;;;5055722;28;20174;-69
2023/01/24 07:53:02;;;;;;;0.40;0.40;;;1.50;99.90;;;;;;5054832;28;20180;-68
2023/01/24 07:55:27;;;;;;;2.37;2.00;;;1.60;99.90;;;;;;5054183;28;20220;-72
2023/01/24 07:58:01;;;;;;;1.23;1.23;;;1.50;99.90;;;;;;5055158;28;20601;-70
2023/01/24 08:00:27;;;;;;;0.30;0.30;;;1.40;99.90;;;;;;5055282;28;20552;-71
2023/01/24 08:02:53;;;;;;;0.82;0.82;;;1.50;99.90;;;;;;5054776;28;20175;-71
2023/01/24 08:05:19;;;;;;;0.60;0.60;;;1.60;99.90;;;;;;5055423;28;20174;-71
2023/01/24 08:07:44;;;;;;;0.40;0.40;;;1.50;99.90;;;;;;5055398;28;20201;-68
2023/01/24 08:10:12;;;;;;;0.40;0.40;;;1.60;99.90;;;;;;5054821;28;20195;-68
2023/01/24 08:12:37;;;;;;;0.38;0.38;;;1.60;99.90;;;;;;5054852;28;20168;-68
2023/01/24 08:15:03;;;;;;;0.40;0.40;;;1.60;99.90;;;;;;5055015;28;20221;-69
2023/01/24 08:17:29;;;;;;;1.23;1.23;;;1.70;99.90;;;;;;5055147;28;20625;-69
2023/01/24 08:19:54;;;;;;;0.50;0.50;;;1.70;99.90;;;;;;5054389;28;20220;-69
2023/01/24 08:22:20;;;;;;;1.93;1.57;;;1.40;99.90;;;;;;5054287;28;20181;-69
2023/01/24 08:24:46;;;;;;;0.50;0.50;;;1.50;99.90;;;;;;5054536;28;20477;-69
2023/01/24 08:27:12;;;;;;;0.40;0.40;;;1.80;99.90;;;;;;5054546;28;20287;-69
2023/01/24 08:29:37;;;;;;;1.03;0.90;;;2.00;99.90;;;;;;5054672;28;20435;-69
2023/01/24 08:32:03;;;;;;;1.03;1.03;;;2.00;99.90;;;;;;5054513;28;20180;-68
2023/01/24 08:34:28;;;;;;;1.07;1.07;;;2.00;99.90;;;;;;5054934;28;20516;-69
2023/01/24 08:36:54;;;;;;;0.30;0.30;;;2.10;99.90;;;;;;5054434;28;20180;-70
2023/01/24 08:39:20;;;;;;;0.40;0.40;;;1.90;99.90;;;;;;5054484;28;20593;-70
2023/01/24 08:41:46;;;;;;;0.83;0.83;;;1.90;99.90;;;;;;5054315;28;20622;-71
2023/01/24 08:44:15;;;;;;;0.30;0.30;;;1.80;99.90;;;;;;5054491;28;20655;-70
2023/01/24 08:46:41;;;;;;;0.50;0.50;;;2.00;99.90;;;;;;5053963;28;20546;-71
2023/01/24 08:49:09;;;;;;;1.20;0.63;;;2.20;99.90;;;;;;5053264;28;20612;-71
2023/01/24 08:51:34;;;;;;;0.40;0.40;;;2.20;99.80;;;;;;5054020;28;20197;-69
2023/01/24 08:54:00;;;;;;;0.40;0.40;;;2.40;99.70;;;;;;5053926;28;20197;-69
2023/01/24 08:56:26;;;;;;;0.67;0.67;;;2.40;99.40;;;;;;5053912;28;20251;-69
2023/01/24 08:58:52;;;;;;;0.40;0.40;;;2.40;99.50;;;;;;5053883;28;20429;-68
2023/01/24 09:01:17;;;;;;;0.93;0.93;;;2.50;99.10;;;;;;5054378;28;20174;-69
2023/01/24 09:03:43;;;;;;;0.40;0.40;;;2.70;98.90;;;;;;5053805;28;20177;-69
2023/01/24 09:06:09;;;;;;;0.53;0.53;;;2.80;98.80;;;;;;5053709;28;20197;-69
2023/01/24 09:08:35;;;;;;;0.40;0.40;;;3.00;99.00;;;;;;5054056;28;20178;-69
2023/01/24 09:11:01;;;;;;;0.97;0.97;;;3.00;98.60;;;;;;5053777;28;20168;-69
2023/01/24 09:13:27;;;;;;;0.35;0.35;;;2.90;98.10;;;;;;5053518;28;20170;-69
2023/01/24 09:15:53;;;;;;;1.00;1.00;;;2.90;98.60;;;;;;5054110;28;20526;-69
2023/01/24 09:18:19;;;;;;;1.00;1.00;;;3.00;98.30;;;;;;5053359;28;20166;-69
2023/01/24 09:20:44;;;;;;;0.60;0.60;;;2.60;98.30;;;;;;5053674;28;20228;-68
2023/01/24 09:23:14;;;;;;;0.40;0.40;;;2.70;98.80;;;;;;5052244;28;20176;-69
2023/01/24 09:25:48;;;;;;;0.52;0.52;;;2.80;98.60;;;;;;5053864;28;20551;-71
2023/01/24 09:28:14;;;;;;;0.40;0.40;;;2.60;98.40;;;;;;5053770;28;20180;-69
2023/01/24 09:30:39;;;;;;;0.67;0.67;;;2.60;98.90;;;;;;5052846;28;20177;-70
2023/01/24 09:33:05;;;;;;;0.50;0.50;;;2.70;98.90;;;;;;5052168;28;20180;-68
2023/01/24 09:35:31;;;;;;;0.30;0.30;;;2.80;98.80;;;;;;5053493;28;20431;-69
2023/01/24 09:37:56;;;;;;;0.37;0.37;;;3.00;98.70;;;;;;5053794;28;20645;-69
2023/01/24 09:40:48;;;;;;;0.80;0.80;;;2.90;98.50;;;;;;5053685;28;20662;-69
2023/01/24 09:43:52;;;;;;;0.65;0.65;;;2.90;98.30;;;;;;5050465;28;20207;-70
2023/01/24 09:46:25;;;;;;;0.77;0.77;;;2.80;98.40;;;;;;5053243;28;20197;-70
2023/01/24 09:49:15;;;;;;;0.68;0.68;;;2.80;98.40;;;;;;5053194;28;20674;-69
2023/01/24 09:51:47;;;;;;;0.70;0.70;;;2.40;99.00;;;;;;5052642;28;20639;-69
2023/01/24 09:54:29;;;;;;;0.50;0.50;;;2.40;99.30;;;;;;5053421;28;20220;-69
2023/01/24 09:56:56;;;;;;;1.55;1.25;;;2.40;99.30;;;;;;5053571;28;20265;-69
2023/01/24 09:59:32;;;;;;;0.40;0.40;;;2.30;99.60;;;;;;5053439;28;20250;-69
2023/01/24 10:01:58;;;;;;;0.50;0.50;;;2.40;99.50;;;;;;5053377;28;20181;-69
2023/01/24 10:04:34;;;;;;;0.67;0.67;;;2.10;99.70;;;;;;5053283;28;20210;-69
2023/01/24 10:07:08;;;;;;;0.70;0.70;;;2.20;99.70;;;;;;5053101;28;20576;-70
2023/01/24 10:09:58;;;;;;;0.30;0.30;;;2.40;99.80;;;;;;5057063;28;20185;-69
2023/01/24 10:12:27;;;;;;;0.95;0.95;;;2.80;99.10;;;;;;5056865;28;20169;-69
2023/01/24 10:15:16;;;;;;;0.80;0.80;;;3.00;98.60;;;;;;5057134;28;20245;-70
2023/01/24 10:17:52;;;;;;;0.40;0.40;;;3.20;98.00;;;;;;5057496;28;20177;-70
2023/01/24 10:20:49;;;;;;;0.30;0.30;;;3.40;97.60;;;;;;5057238;28;20213;-69
2023/01/24 10:23:42;;;;;;;0.40;0.40;;;3.20;97.60;;;;;;5056916;28;20576;-70
2023/01/24 10:26:32;;;;;;;0.40;0.40;;;3.20;97.90;;;;;;5055624;28;20655;-70
2023/01/24 10:29:13;;;;;;;0.77;0.77;;;3.30;97.70;;;;;;5056909;28;20226;-69
2023/01/24 10:31:44;;;;;;;1.45;1.35;;;3.40;97.40;;;;;;5057169;28;20162;-69
2023/01/24 10:34:16;;;;;;;0.30;0.30;;;3.20;97.60;;;;;;5056860;28;20174;-67
2023/01/24 10:36:51;;;;;;;0.35;0.35;;;3.00;97.80;;;;;;5056886;28;20175;-68
2023/01/24 10:39:17;;;;;;;0.40;0.40;;;2.90;97.90;;;;;;5056086;28;20204;-68
2023/01/24 10:41:42;;;;;;;1.53;0.93;;;3.00;98.10;;;;;;5056462;28;20181;-68
2023/01/24 10:44:25;;;;;;;0.60;0.60;;;3.10;98.00;;;;;;5055868;28;20405;-67
2023/01/24 10:47:21;;;;;;;0.45;0.45;;;2.90;97.80;;;;;;5056501;28;20196;-68
2023/01/24 10:50:03;;;;;;;0.40;0.40;;;3.20;98.10;;;;;;5055562;28;20280;-68
2023/01/24 10:52:29;;;;;;;0.70;0.70;;;3.40;97.60;;;;;;5056247;28;20157;-68
2023/01/24 10:54:57;;;;;;;0.83;0.80;;;3.40;97.60;;;;;;5056376;28;20170;-68
2023/01/24 10:57:42;;;;;;;0.32;0.32;;;3.50;97.60;;;;;;5056613;28;20249;-67
2023/01/24 11:00:22;;;;;;;0.40;0.40;;;3.70;97.40;;;;;;5056608;28;20197;-67
2023/01/24 11:03:03;;;;;;;1.02;1.02;;;4.00;96.90;;;;;;5055818;28;20170;-67
2023/01/24 11:05:45;;;;;;;0.40;0.40;;;4.00;96.50;;;;;;5056243;28;20569;-68
2023/01/24 11:08:34;;;;;;;0.50;0.50;;;3.80;96.30;;;;;;5056380;28;20197;-67
2023/01/24 11:11:00;;;;;;;1.30;1.30;;;3.50;96.50;;;;;;5055750;28;20170;-68
2023/01/24 11:13:36;;;;;;;1.08;0.98;;;3.60;96.90;;;;;;5055598;28;20170;-68
2023/01/24 11:16:14;;;;;;;0.40;0.40;;;3.70;96.80;;;;;;5055559;28;20256;-69
2023/01/24 11:18:47;;;;;;;0.40;0.40;;;3.70;96.80;;;;;;5055709;28;20289;-69
2023/01/24 11:21:15;;;;;;;2.00;1.90;;;3.60;96.70;;;;;;5056158;28;20173;-69
2023/01/24 11:23:42;;;;;;;0.55;0.55;;;3.50;97.00;;;;;;5055573;28;20173;-69
2023/01/24 11:26:29;;;;;;;0.40;0.40;;;3.20;97.20;;;;;;5055498;28;20233;-69
2023/01/24 11:29:04;;;;;;;0.73;0.73;;;3.30;97.50;;;;;;5055849;28;20241;-69
2023/01/24 11:31:37;;;;;;;3.00;0.65;;;3.50;97.50;;;;;;5056163;28;20208;-69
2023/01/24 11:34:57;;;;;;;0.30;0.30;;;3.70;97.10;;;;;;5055812;28;20174;-70
2023/01/24 11:37:23;;;;;;;0.30;0.30;;;3.90;96.50;;;;;;5033850;28;20245;-70
2023/01/24 11:40:07;;;;;;;0.60;0.60;;;3.90;96.30;;;;;;5016801;28;20208;-70
2023/01/24 11:42:45;;;;;;;0.40;0.40;;;4.00;96.20;;;;;;5048934;28;20182;-70
2023/01/24 11:45:22;;;;;;;1.02;0.80;;;4.30;96.20;;;;;;5055558;28;20189;-70
2023/01/24 11:48:07;;;;;;;0.40;0.40;;;4.30;95.70;;;;;;5055518;28;20546;-69
2023/01/24 11:50:53;;;;;;;2.85;2.65;;;4.70;95.70;;;;;;5055538;28;20186;-70
2023/01/24 11:53:29;;;;;;;1.92;1.83;;;5.00;95.10;;;;;;5054678;28;20216;-69
2023/01/24 11:56:20;;;;;;;0.32;0.32;;;5.10;94.30;;;;;;5055437;28;20178;-70
2023/01/24 11:58:54;;;;;;;0.77;0.77;;;5.00;94.30;;;;;;5055310;28;20182;-70
2023/01/24 12:01:50;;;;;;;1.05;1.00;;;4.90;94.30;;;;;;5054995;28;20161;-70
2023/01/24 12:04:48;;;;;;;1.75;1.65;;;4.70;94.80;;;;;;5055290;28;20679;-69
2023/01/24 12:07:45;;;;;;;0.40;0.40;;;4.90;94.80;;;;;;5050102;28;20224;-68
2023/01/24 12:10:58;;;;;;;0.40;0.40;;;4.90;94.70;;;;;;5052463;28;20206;-68
2023/01/24 12:13:42;;;;;;;1.02;0.98;;;4.50;94.50;;;;;;5044417;28;20207;-69
2023/01/24 12:16:16;;;;;;;2.40;2.25;;;4.60;95.00;;;;;;5053012;28;20593;-69
2023/01/24 12:19:06;;;;;;;0.40;0.40;;;4.90;95.00;;;;;;5054666;28;20212;-69
2023/01/24 12:21:32;;;;;;;2.45;2.30;;;4.90;94.00;;;;;;5055152;28;20259;-69
2023/01/24 12:24:14;;;;;;;1.53;1.47;;;4.80;94.00;;;;;;5054267;28;20202;-69
2023/01/24 12:26:57;;;;;;;0.47;0.47;;;4.70;93.90;;;;;;5053345;28;20463;-69
2023/01/24 12:29:39;;;;;;;2.15;1.13;;;4.40;94.40;;;;;;5054369;28;20186;-68
2023/01/24 12:32:19;;;;;;;0.60;0.60;;;4.30;95.10;;;;;;5053842;28;20221;-69
2023/01/24 12:35:06;;;;;;;0.50;0.50;;;4.50;95.10;;;;;;5054464;28;20178;-69
2023/01/24 12:37:55;;;;;;;0.80;0.80;;;4.60;94.80;;;;;;5054624;28;20178;-69
2023/01/24 12:40:29;;;;;;;1.35;1.30;;;4.70;94.70;;;;;;5054862;28;20256;-68
2023/01/24 12:43:02;;;;;;;0.50;0.50;;;4.50;94.70;;;;;;5054065;28;20193;-69
2023/01/24 12:45:38;;;;;;;0.70;0.70;;;4.70;94.70;;;;;;5054545;28;20198;-68
2023/01/24 12:48:19;;;;;;;0.40;0.40;;;4.60;94.00;;;;;;5054417;28;20202;-69
2023/01/24 12:50:57;;;;;;;1.77;1.77;;;4.40;94.70;;;;;;5053448;28;20170;-68
2023/01/24 12:53:31;;;;;;;1.23;1.23;;;4.30;94.80;;;;;;5053864;28;20254;-69
2023/01/24 12:56:16;;;;;;;1.13;1.13;;;4.20;95.20;;;;;;5054201;28;20205;-69
2023/01/24 12:58:46;;;;;;;1.02;1.02;;;4.30;95.10;;;;;;5053780;28;20190;-69
2023/01/24 13:01:35;;;;;;;0.40;0.40;;;4.50;94.80;;;;;;5054446;28;20275;-69
2023/01/24 13:04:33;;;;;;;1.00;0.90;;;4.30;94.60;;;;;;5053822;28;20518;-69
2023/01/24 13:07:02;;;;;;;0.40;0.40;;;4.10;95.10;;;;;;5038528;28;20202;-69
2023/01/24 13:10:00;;;;;;;0.38;0.38;;;4.40;95.20;;;;;;5052547;28;20194;-69
2023/01/24 13:12:28;;;;;;;1.15;1.15;;;4.20;95.00;;;;;;5053951;28;20189;-69
2023/01/24 13:15:04;;;;;;;0.98;0.88;;;3.60;95.50;;;;;;5053817;28;20170;-69
2023/01/24 13:18:05;;;;;;;0.32;0.32;;;3.70;96.10;;;;;;5054118;28;20522;-69
2023/01/24 13:21:00;;;;;;;0.40;0.40;;;4.00;96.10;;;;;;5053552;28;20201;-69
2023/01/24 13:23:40;;;;;;;2.25;2.05;;;4.30;95.90;;;;;;5053748;28;20206;-69
2023/01/24 13:26:26;;;;;;;0.85;0.85;;;4.40;95.20;;;;;;5053658;28;20174;-68
2023/01/24 13:29:23;;;;;;;0.60;0.60;;;4.60;95.10;;;;;;5052943;28;20206;-69
2023/01/24 13:32:11;;;;;;;0.80;0.50;;;4.70;94.90;;;;;;5053403;28;20189;-69
2023/01/24 13:34:53;;;;;;;1.35;1.35;;;4.70;94.90;;;;;;5053618;28;20539;-69
2023/01/24 13:37:32;;;;;;;0.50;0.50;;;4.80;94.70;;;;;;5053876;28;20166;-69
2023/01/24 13:40:03;;;;;;;0.85;0.85;;;4.60;94.40;;;;;;5053783;28;20223;-69
2023/01/24 13:42:37;;;;;;;0.88;0.88;;;4.40;94.90;;;;;;5056124;28;20173;-69
2023/01/24 13:45:30;;;;;;;0.80;0.80;;;4.40;95.20;;;;;;5057695;28;20232;-69
2023/01/24 13:47:59;;;;;;;0.50;0.50;;;4.40;95.00;;;;;;5057642;28;20292;-69
2023/01/24 13:50:26;;;;;;;0.60;0.60;;;4.30;95.00;;;;;;5057882;28;20225;-69
2023/01/24 13:53:01;;;;;;;1.23;1.17;;;4.40;95.30;;;;;;5057425;28;20715;-69